Bahia Uno — ECFT — position and weather

sailwx.info

Track history (hours):
 
Tides and Currents Weather Stations Pressure Air Temp Water Temp Dewpoint Dewpoint Depression Visibility Wind Speed Wind Dir Waves Ship Positions

Bahia Uno

Last reported at 2017-Jun-26 19:11 UTC. Time now 2017-Jun-27 02:06 UTC.
Position N 36°08' W 005°26'.

Length 70 m; draft 5.5 m.

Type: Ship. MMSI: 224127820.

Date/timePositionNaut miles runAvg speedWind from/ knotsBaromVisibWave heightAir tempDewpointWater temp
2017-Jun-26 19:11N 36°08' W 005°26'1 2.9
2017-Jun-26 19:00N 36°08' W 005°26'0 0.1
2017-Jun-26 18:22N 36°08' W 005°26'0 0.0
2017-Jun-26 17:58N 36°08' W 005°26'0 0.0
2017-Jun-26 16:43N 36°08' W 005°26'0 0.0
2017-Jun-26 16:30N 36°08' W 005°26'0 0.0
2017-Jun-26 16:01N 36°08' W 005°26'0 0.0
2017-Jun-26 14:48N 36°08' W 005°26'3 0.3
2017-Jun-26 05:45N 36°06' W 005°24'1 2.6
2017-Jun-26 05:30N 36°05' W 005°24'0 0.1
2017-Jun-26 05:01N 36°05' W 005°24'0 0.1
2017-Jun-26 04:30N 36°05' W 005°24'0 0.1
2017-Jun-26 03:58N 36°05' W 005°24'0 0.1
2017-Jun-26 03:30N 36°05' W 005°24'0 0.2
2017-Jun-26 03:01N 36°05' W 005°24'0 0.0
2017-Jun-26 02:30N 36°05' W 005°24'0 0.0
2017-Jun-26 02:00N 36°05' W 005°24'0 0.0
2017-Jun-26 01:28N 36°05' W 005°24'0 0.0
2017-Jun-26 00:59N 36°05' W 005°24'0 0.0
2017-Jun-26 00:28N 36°05' W 005°24'0 0.2
2017-Jun-25 23:43N 36°05' W 005°24'0 0.1
2017-Jun-25 22:47N 36°05' W 005°24'0 0.6
2017-Jun-25 22:00N 36°05' W 005°25'0 0.2
2017-Jun-25 21:27N 36°05' W 005°25'1 0.2
2017-Jun-25 13:08N 36°06' W 005°25'0 0.0
2017-Jun-25 13:00N 36°06' W 005°25'0 0.0
2017-Jun-25 08:43N 36°07' W 005°25'4 4.1
2017-Jun-25 07:51N 36°10' W 005°22'0 0.0
2017-Jun-25 06:17N 36°10' W 005°22'3 1.5
2017-Jun-25 04:34N 36°09' W 005°26'1 0.3
2017-Jun-25 02:21N 36°08' W 005°26'0 0.0
2017-Jun-25 02:00N 36°08' W 005°26'0 0.0
2017-Jun-25 01:30N 36°08' W 005°26'0 0.0
2017-Jun-24 23:35N 36°08' W 005°26'0 0.0
2017-Jun-24 23:25N 36°08' W 005°26'0 0.0
2017-Jun-24 23:00N 36°08' W 005°26'0 0.0
2017-Jun-24 21:49N 36°08' W 005°26'0 0.0
2017-Jun-24 20:41N 36°08' W 005°26'0 0.0
2017-Jun-24 20:30N 36°08' W 005°26'0 0.0
2017-Jun-24 20:00N 36°08' W 005°26'0 0.2
2017-Jun-24 19:30N 36°08' W 005°26'0 0.0
2017-Jun-24 18:59N 36°08' W 005°26'0 0.2
2017-Jun-24 16:32N 36°09' W 005°26'0 3.6
2017-Jun-24 16:30N 36°09' W 005°26'3 5.5
2017-Jun-24 16:00N 36°06' W 005°25'0 0.6
2017-Jun-24 15:29N 36°06' W 005°25'0 0.2
2017-Jun-24 15:01N 36°06' W 005°24'0 0.0
2017-Jun-24 14:00N 36°06' W 005°24'0 0.0
2017-Jun-24 12:38N 36°06' W 005°24'0 0.0
2017-Jun-24 10:07N 36°06' W 005°25'0 0.1
2017-Jun-24 09:18N 36°06' W 005°25'0 1.4
2017-Jun-24 09:01N 36°06' W 005°24'2 5.0
2017-Jun-24 08:30N 36°09' W 005°25'0 0.9
2017-Jun-24 08:00N 36°08' W 005°26'0 0.0
2017-Jun-24 07:30N 36°08' W 005°26'0 0.0
2017-Jun-24 06:58N 36°08' W 005°26'0 0.0
2017-Jun-24 06:16N 36°08' W 005°26'0 0.0
2017-Jun-24 05:53N 36°08' W 005°26'0 0.0
2017-Jun-24 05:30N 36°08' W 005°26'0 0.0
2017-Jun-24 05:00N 36°08' W 005°26'0 0.0
2017-Jun-24 04:30N 36°08' W 005°26'0 0.0
2017-Jun-24 04:00N 36°08' W 005°26'0 0.0
2017-Jun-24 03:31N 36°08' W 005°26'0 0.0
2017-Jun-24 03:00N 36°08' W 005°26'0 0.0
2017-Jun-24 02:31N 36°08' W 005°26'1 2.3
2017-Jun-24 02:00N 36°07' W 005°25'2 3.2
2017-Jun-24 01:30N 36°06' W 005°25'0 0.0
2017-Jun-24 00:54N 36°06' W 005°25'0 0.1
2017-Jun-24 00:28N 36°06' W 005°25'0 0.1
2017-Jun-24 00:00N 36°06' W 005°25'0 0.0
2017-Jun-23 23:23N 36°06' W 005°25'0 0.0
2017-Jun-23 23:00N 36°06' W 005°25'0 0.1
2017-Jun-23 22:30N 36°06' W 005°25'0 0.2
2017-Jun-23 21:59N 36°06' W 005°25'1 1.5
2017-Jun-23 21:29N 36°06' W 005°24'0 0.0
2017-Jun-23 20:53N 36°06' W 005°24'0 0.1
2017-Jun-23 20:31N 36°06' W 005°24'0 0.0
2017-Jun-23 20:00N 36°06' W 005°24'0 0.7
2017-Jun-23 19:30N 36°06' W 005°25'1 0.7
2017-Jun-23 18:33N 36°06' W 005°25'0 0.2
2017-Jun-23 18:30N 36°06' W 005°25'0 0.0
2017-Jun-23 17:02N 36°06' W 005°25'0 0.0
2017-Jun-23 16:01N 36°06' W 005°25'0 0.1
2017-Jun-23 15:23N 36°06' W 005°25'0 0.1
2017-Jun-23 13:10N 36°06' W 005°25'0 0.1
2017-Jun-23 13:00N 36°06' W 005°25'1 1.5
2017-Jun-23 12:30N 36°06' W 005°25'0 0.0
2017-Jun-23 12:01N 36°06' W 005°25'0 0.1
2017-Jun-23 11:29N 36°06' W 005°25'0 0.0
2017-Jun-23 11:00N 36°06' W 005°25'0 0.0
2017-Jun-23 10:30N 36°06' W 005°25'0 0.0
2017-Jun-23 10:00N 36°06' W 005°25'0 0.1
2017-Jun-23 09:31N 36°06' W 005°25'1 1.2
2017-Jun-23 08:41N 36°07' W 005°25'1 0.2
2017-Jun-23 01:41N 36°08' W 005°26'1 3.4
2017-Jun-23 01:15N 36°07' W 005°25'2 4.0
2017-Jun-23 00:51N 36°06' W 005°25'0 0.1
2017-Jun-23 00:30N 36°06' W 005°25'0 0.1
2017-Jun-22 23:59N 36°06' W 005°25'0 0.1
2017-Jun-22 23:28N 36°06' W 005°25'0 0.0
2017-Jun-22 22:57N 36°06' W 005°25'0 0.1
2017-Jun-22 22:12N 36°06' W 005°25'0 0.1
2017-Jun-22 21:51N 36°06' W 005°25'0 0.0
2017-Jun-22 21:29N 36°06' W 005°25'2 0.8
2017-Jun-22 19:26N 36°07' W 005°25'0 0.1
2017-Jun-22 18:46N 36°07' W 005°25'1 0.2
2017-Jun-22 13:26N 36°08' W 005°25'0 0.1
2017-Jun-22 12:56N 36°08' W 005°25'3 1.4
2017-Jun-22 10:33N 36°05' W 005°24'0 0.1
2017-Jun-22 10:05N 36°05' W 005°24'0 0.4
2017-Jun-22 09:59N 36°05' W 005°24'4 0.5
2017-Jun-22 03:22N 36°08' W 005°26'0 0.0
2017-Jun-22 02:46N 36°08' W 005°26'0 0.0
2017-Jun-22 01:48N 36°08' W 005°26'0 0.0
2017-Jun-22 00:51N 36°08' W 005°26'0 0.0
2017-Jun-22 00:23N 36°08' W 005°26'0 1.1
2017-Jun-22 00:00N 36°09' W 005°25'2 4.4
2017-Jun-21 23:29N 36°06' W 005°25'1 3.0
2017-Jun-21 23:00N 36°05' W 005°24'0 0.1
2017-Jun-21 22:25N 36°05' W 005°24'0 0.0
2017-Jun-21 21:05N 36°05' W 005°24'0 0.2
2017-Jun-21 21:00N 36°05' W 005°24'1 1.1
2017-Jun-21 20:07N 36°06' W 005°25'0 0.2
2017-Jun-21 20:00N 36°06' W 005°25'0 0.0
2017-Jun-21 19:30N 36°06' W 005°25'0 0.0
2017-Jun-21 02:48N 36°06' W 005°25'2 4.8
2017-Jun-21 02:26N 36°08' W 005°25'1 1.8
2017-Jun-21 01:50N 36°09' W 005°26'0 0.0
2017-Jun-21 01:30N 36°09' W 005°26'0 0.0
2017-Jun-21 00:59N 36°09' W 005°26'0 0.0
2017-Jun-20 21:23N 36°09' W 005°26'0 0.0
2017-Jun-19 19:32N 36°09' W 005°26'0 0.8
2017-Jun-19 19:30N 36°09' W 005°26'0 0.0
2017-Jun-19 19:00N 36°09' W 005°26'0 0.0
2017-Jun-19 18:30N 36°09' W 005°26'0 0.0
2017-Jun-19 17:31N 36°09' W 005°26'0 0.0
2017-Jun-18 03:53N 36°09' W 005°26'1 0.2
2017-Jun-18 00:42N 36°09' W 005°25'0 0.0
2017-Jun-18 00:30N 36°09' W 005°25'0 0.0
2017-Jun-17 23:46N 36°09' W 005°25'1 0.2
2017-Jun-17 19:00N 36°08' W 005°26'0 0.0
2017-Jun-17 16:37N 36°08' W 005°26'0 0.1
2017-Jun-17 16:30N 36°08' W 005°26'0 0.0
2017-Jun-17 16:00N 36°08' W 005°26'0 0.0
2017-Jun-17 15:28N 36°08' W 005°26'0 0.1
2017-Jun-17 14:59N 36°08' W 005°26'0 0.2
2017-Jun-17 14:30N 36°08' W 005°26'0 0.0
2017-Jun-17 13:02N 36°08' W 005°26'0 0.0
2017-Jun-17 12:57N 36°08' W 005°26'0 0.0
2017-Jun-17 12:20N 36°08' W 005°26'0 0.0
2017-Jun-17 11:46N 36°08' W 005°26'0 0.0
2017-Jun-17 11:24N 36°08' W 005°26'0 0.0
2017-Jun-17 11:00N 36°08' W 005°26'0 0.0
2017-Jun-17 10:28N 36°08' W 005°26'0 0.0
2017-Jun-17 01:37N 36°08' W 005°26'0 0.0
2017-Jun-17 01:29N 36°08' W 005°26'0 0.0
2017-Jun-17 00:57N 36°08' W 005°26'0 0.0
2017-Jun-17 00:17N 36°08' W 005°26'0 0.1
2017-Jun-16 23:10N 36°08' W 005°26'0 0.7
2017-Jun-16 22:59N 36°08' W 005°26'0 0.0
2017-Jun-16 22:30N 36°08' W 005°26'0 0.0
2017-Jun-16 21:53N 36°08' W 005°26'0 0.0
2017-Jun-16 21:28N 36°08' W 005°26'0 0.0
2017-Jun-16 21:00N 36°08' W 005°26'0 0.0
2017-Jun-16 20:30N 36°08' W 005°26'0 0.0
2017-Jun-16 20:00N 36°08' W 005°26'0 0.0
2017-Jun-16 19:19N 36°08' W 005°26'  
Track history (hours):
 
Tides and Currents Weather Stations Pressure Air Temp Water Temp Dewpoint Dewpoint Depression Visibility Wind Speed Wind Dir Waves Ship Positions

Bahia Uno

Last reported at 2017-Jun-26 19:11 UTC. Time now 2017-Jun-27 02:06 UTC.
Position N 36°08' W 005°26'.

Length 70 m; draft 5.5 m.

Type: Ship. MMSI: 224127820.

Date/timePositionNaut miles runAvg speedWind from/ knotsBaromVisibWave heightAir tempDewpointWater temp
2017-Jun-26 19:11N 36°08' W 005°26'1 2.9
2017-Jun-26 19:00N 36°08' W 005°26'0 0.1
2017-Jun-26 18:22N 36°08' W 005°26'0 0.0
2017-Jun-26 17:58N 36°08' W 005°26'0 0.0
2017-Jun-26 16:43N 36°08' W 005°26'0 0.0
2017-Jun-26 16:30N 36°08' W 005°26'0 0.0
2017-Jun-26 16:01N 36°08' W 005°26'0 0.0
2017-Jun-26 14:48N 36°08' W 005°26'3 0.3
2017-Jun-26 05:45N 36°06' W 005°24'1 2.6
2017-Jun-26 05:30N 36°05' W 005°24'0 0.1
2017-Jun-26 05:01N 36°05' W 005°24'0 0.1
2017-Jun-26 04:30N 36°05' W 005°24'0 0.1
2017-Jun-26 03:58N 36°05' W 005°24'0 0.1
2017-Jun-26 03:30N 36°05' W 005°24'0 0.2
2017-Jun-26 03:01N 36°05' W 005°24'0 0.0
2017-Jun-26 02:30N 36°05' W 005°24'0 0.0
2017-Jun-26 02:00N 36°05' W 005°24'0 0.0
2017-Jun-26 01:28N 36°05' W 005°24'0 0.0
2017-Jun-26 00:59N 36°05' W 005°24'0 0.0
2017-Jun-26 00:28N 36°05' W 005°24'0 0.2
2017-Jun-25 23:43N 36°05' W 005°24'0 0.1
2017-Jun-25 22:47N 36°05' W 005°24'0 0.6
2017-Jun-25 22:00N 36°05' W 005°25'0 0.2
2017-Jun-25 21:27N 36°05' W 005°25'1 0.2
2017-Jun-25 13:08N 36°06' W 005°25'0 0.0
2017-Jun-25 13:00N 36°06' W 005°25'0 0.0
2017-Jun-25 08:43N 36°07' W 005°25'4 4.1
2017-Jun-25 07:51N 36°10' W 005°22'0 0.0
2017-Jun-25 06:17N 36°10' W 005°22'3 1.5
2017-Jun-25 04:34N 36°09' W 005°26'1 0.3
2017-Jun-25 02:21N 36°08' W 005°26'0 0.0
2017-Jun-25 02:00N 36°08' W 005°26'0 0.0
2017-Jun-25 01:30N 36°08' W 005°26'0 0.0
2017-Jun-24 23:35N 36°08' W 005°26'0 0.0
2017-Jun-24 23:25N 36°08' W 005°26'0 0.0
2017-Jun-24 23:00N 36°08' W 005°26'0 0.0
2017-Jun-24 21:49N 36°08' W 005°26'0 0.0
2017-Jun-24 20:41N 36°08' W 005°26'0 0.0
2017-Jun-24 20:30N 36°08' W 005°26'0 0.0
2017-Jun-24 20:00N 36°08' W 005°26'0 0.2
2017-Jun-24 19:30N 36°08' W 005°26'0 0.0
2017-Jun-24 18:59N 36°08' W 005°26'0 0.2
2017-Jun-24 16:32N 36°09' W 005°26'0 3.6
2017-Jun-24 16:30N 36°09' W 005°26'3 5.5
2017-Jun-24 16:00N 36°06' W 005°25'0 0.6
2017-Jun-24 15:29N 36°06' W 005°25'0 0.2
2017-Jun-24 15:01N 36°06' W 005°24'0 0.0
2017-Jun-24 14:00N 36°06' W 005°24'0 0.0
2017-Jun-24 12:38N 36°06' W 005°24'0 0.0
2017-Jun-24 10:07N 36°06' W 005°25'0 0.1
2017-Jun-24 09:18N 36°06' W 005°25'0 1.4
2017-Jun-24 09:01N 36°06' W 005°24'2 5.0
2017-Jun-24 08:30N 36°09' W 005°25'0 0.9
2017-Jun-24 08:00N 36°08' W 005°26'0 0.0
2017-Jun-24 07:30N 36°08' W 005°26'0 0.0
2017-Jun-24 06:58N 36°08' W 005°26'0 0.0
2017-Jun-24 06:16N 36°08' W 005°26'0 0.0
2017-Jun-24 05:53N 36°08' W 005°26'0 0.0
2017-Jun-24 05:30N 36°08' W 005°26'0 0.0
2017-Jun-24 05:00N 36°08' W 005°26'0 0.0
2017-Jun-24 04:30N 36°08' W 005°26'0 0.0
2017-Jun-24 04:00N 36°08' W 005°26'0 0.0
2017-Jun-24 03:31N 36°08' W 005°26'0 0.0
2017-Jun-24 03:00N 36°08' W 005°26'0 0.0
2017-Jun-24 02:31N 36°08' W 005°26'1 2.3
2017-Jun-24 02:00N 36°07' W 005°25'2 3.2
2017-Jun-24 01:30N 36°06' W 005°25'0 0.0
2017-Jun-24 00:54N 36°06' W 005°25'0 0.1
2017-Jun-24 00:28N 36°06' W 005°25'0 0.1
2017-Jun-24 00:00N 36°06' W 005°25'0 0.0
2017-Jun-23 23:23N 36°06' W 005°25'0 0.0
2017-Jun-23 23:00N 36°06' W 005°25'0 0.1
2017-Jun-23 22:30N 36°06' W 005°25'0 0.2
2017-Jun-23 21:59N 36°06' W 005°25'1 1.5
2017-Jun-23 21:29N 36°06' W 005°24'0 0.0
2017-Jun-23 20:53N 36°06' W 005°24'0 0.1
2017-Jun-23 20:31N 36°06' W 005°24'0 0.0
2017-Jun-23 20:00N 36°06' W 005°24'0 0.7
2017-Jun-23 19:30N 36°06' W 005°25'1 0.7
2017-Jun-23 18:33N 36°06' W 005°25'0 0.2
2017-Jun-23 18:30N 36°06' W 005°25'0 0.0
2017-Jun-23 17:02N 36°06' W 005°25'0 0.0
2017-Jun-23 16:01N 36°06' W 005°25'0 0.1
2017-Jun-23 15:23N 36°06' W 005°25'0 0.1
2017-Jun-23 13:10N 36°06' W 005°25'0 0.1
2017-Jun-23 13:00N 36°06' W 005°25'1 1.5
2017-Jun-23 12:30N 36°06' W 005°25'0 0.0
2017-Jun-23 12:01N 36°06' W 005°25'0 0.1
2017-Jun-23 11:29N 36°06' W 005°25'0 0.0
2017-Jun-23 11:00N 36°06' W 005°25'0 0.0
2017-Jun-23 10:30N 36°06' W 005°25'0 0.0
2017-Jun-23 10:00N 36°06' W 005°25'0 0.1
2017-Jun-23 09:31N 36°06' W 005°25'1 1.2
2017-Jun-23 08:41N 36°07' W 005°25'1 0.2
2017-Jun-23 01:41N 36°08' W 005°26'1 3.4
2017-Jun-23 01:15N 36°07' W 005°25'2 4.0
2017-Jun-23 00:51N 36°06' W 005°25'0 0.1
2017-Jun-23 00:30N 36°06' W 005°25'0 0.1
2017-Jun-22 23:59N 36°06' W 005°25'0 0.1
2017-Jun-22 23:28N 36°06' W 005°25'0 0.0
2017-Jun-22 22:57N 36°06' W 005°25'0 0.1
2017-Jun-22 22:12N 36°06' W 005°25'0 0.1
2017-Jun-22 21:51N 36°06' W 005°25'0 0.0
2017-Jun-22 21:29N 36°06' W 005°25'2 0.8
2017-Jun-22 19:26N 36°07' W 005°25'0 0.1
2017-Jun-22 18:46N 36°07' W 005°25'1 0.2
2017-Jun-22 13:26N 36°08' W 005°25'0 0.1
2017-Jun-22 12:56N 36°08' W 005°25'3 1.4
2017-Jun-22 10:33N 36°05' W 005°24'0 0.1
2017-Jun-22 10:05N 36°05' W 005°24'0 0.4
2017-Jun-22 09:59N 36°05' W 005°24'4 0.5
2017-Jun-22 03:22N 36°08' W 005°26'0 0.0
2017-Jun-22 02:46N 36°08' W 005°26'0 0.0
2017-Jun-22 01:48N 36°08' W 005°26'0 0.0
2017-Jun-22 00:51N 36°08' W 005°26'0 0.0
2017-Jun-22 00:23N 36°08' W 005°26'0 1.1
2017-Jun-22 00:00N 36°09' W 005°25'2 4.4
2017-Jun-21 23:29N 36°06' W 005°25'1 3.0
2017-Jun-21 23:00N 36°05' W 005°24'0 0.1
2017-Jun-21 22:25N 36°05' W 005°24'0 0.0
2017-Jun-21 21:05N 36°05' W 005°24'0 0.2
2017-Jun-21 21:00N 36°05' W 005°24'1 1.1
2017-Jun-21 20:07N 36°06' W 005°25'0 0.2
2017-Jun-21 20:00N 36°06' W 005°25'0 0.0
2017-Jun-21 19:30N 36°06' W 005°25'0 0.0
2017-Jun-21 02:48N 36°06' W 005°25'2 4.8
2017-Jun-21 02:26N 36°08' W 005°25'1 1.8
2017-Jun-21 01:50N 36°09' W 005°26'0 0.0
2017-Jun-21 01:30N 36°09' W 005°26'0 0.0
2017-Jun-21 00:59N 36°09' W 005°26'0 0.0
2017-Jun-20 21:23N 36°09' W 005°26'0 0.0
2017-Jun-19 19:32N 36°09' W 005°26'0 0.8
2017-Jun-19 19:30N 36°09' W 005°26'0 0.0
2017-Jun-19 19:00N 36°09' W 005°26'0 0.0
2017-Jun-19 18:30N 36°09' W 005°26'0 0.0
2017-Jun-19 17:31N 36°09' W 005°26'0 0.0
2017-Jun-18 03:53N 36°09' W 005°26'1 0.2
2017-Jun-18 00:42N 36°09' W 005°25'0 0.0
2017-Jun-18 00:30N 36°09' W 005°25'0 0.0
2017-Jun-17 23:46N 36°09' W 005°25'1 0.2
2017-Jun-17 19:00N 36°08' W 005°26'0 0.0
2017-Jun-17 16:37N 36°08' W 005°26'0 0.1
2017-Jun-17 16:30N 36°08' W 005°26'0 0.0
2017-Jun-17 16:00N 36°08' W 005°26'0 0.0
2017-Jun-17 15:28N 36°08' W 005°26'0 0.1
2017-Jun-17 14:59N 36°08' W 005°26'0 0.2
2017-Jun-17 14:30N 36°08' W 005°26'0 0.0
2017-Jun-17 13:02N 36°08' W 005°26'0 0.0
2017-Jun-17 12:57N 36°08' W 005°26'0 0.0
2017-Jun-17 12:20N 36°08' W 005°26'0 0.0
2017-Jun-17 11:46N 36°08' W 005°26'0 0.0
2017-Jun-17 11:24N 36°08' W 005°26'0 0.0
2017-Jun-17 11:00N 36°08' W 005°26'0 0.0
2017-Jun-17 10:28N 36°08' W 005°26'0 0.0
2017-Jun-17 01:37N 36°08' W 005°26'0 0.0
2017-Jun-17 01:29N 36°08' W 005°26'0 0.0
2017-Jun-17 00:57N 36°08' W 005°26'0 0.0
2017-Jun-17 00:17N 36°08' W 005°26'0 0.1
2017-Jun-16 23:10N 36°08' W 005°26'0 0.7
2017-Jun-16 22:59N 36°08' W 005°26'0 0.0
2017-Jun-16 22:30N 36°08' W 005°26'0 0.0
2017-Jun-16 21:53N 36°08' W 005°26'0 0.0
2017-Jun-16 21:28N 36°08' W 005°26'0 0.0
2017-Jun-16 21:00N 36°08' W 005°26'0 0.0
2017-Jun-16 20:30N 36°08' W 005°26'0 0.0
2017-Jun-16 20:00N 36°08' W 005°26'0 0.0
2017-Jun-16 19:19N 36°08' W 005°26'  

Dump ship's entire track history